sensor_id;sensor_type;location;lat;lon;timestamp;P1;durP1;ratioP1;P2;durP2;ratioP2
2390;SDS011;22957;50.824;4.360;2022-07-29T00:01:16;3.93;;;1.50;;
2390;SDS011;22957;50.824;4.360;2022-07-29T00:03:42;2.80;;;1.50;;
2390;SDS011;22957;50.824;4.360;2022-07-29T00:06:08;6.63;;;1.60;;
2390;SDS011;22957;50.824;4.360;2022-07-29T00:08:33;4.20;;;1.83;;
2390;SDS011;22957;50.824;4.360;2022-07-29T00:10:59;3.90;;;1.37;;
2390;SDS011;22957;50.824;4.360;2022-07-29T00:13:25;8.70;;;1.50;;
2390;SDS011;22957;50.824;4.360;2022-07-29T00:15:50;3.43;;;1.70;;
2390;SDS011;22957;50.824;4.360;2022-07-29T00:18:16;1.90;;;1.17;;
2390;SDS011;22957;50.824;4.360;2022-07-29T00:28:27;3.00;;;1.23;;
2390;SDS011;22957;50.824;4.360;2022-07-29T00:30:56;4.70;;;1.30;;
2390;SDS011;22957;50.824;4.360;2022-07-29T00:33:23;2.17;;;1.20;;
2390;SDS011;22957;50.824;4.360;2022-07-29T00:35:48;4.50;;;1.30;;
2390;SDS011;22957;50.824;4.360;2022-07-29T00:38:16;5.90;;;1.40;;
2390;SDS011;22957;50.824;4.360;2022-07-29T00:40:43;5.67;;;1.50;;
2390;SDS011;22957;50.824;4.360;2022-07-29T00:43:09;2.50;;;1.30;;
2390;SDS011;22957;50.824;4.360;2022-07-29T00:45:35;4.10;;;1.50;;
2390;SDS011;22957;50.824;4.360;2022-07-29T00:48:03;4.83;;;1.40;;
2390;SDS011;22957;50.824;4.360;2022-07-29T00:53:06;3.57;;;1.60;;
2390;SDS011;22957;50.824;4.360;2022-07-29T00:55:32;11.27;;;1.77;;
2390;SDS011;22957;50.824;4.360;2022-07-29T00:57:59;4.63;;;1.83;;
2390;SDS011;22957;50.824;4.360;2022-07-29T01:00:26;4.97;;;1.80;;
2390;SDS011;22957;50.824;4.360;2022-07-29T01:02:53;4.60;;;1.50;;
2390;SDS011;22957;50.824;4.360;2022-07-29T01:05:20;2.60;;;1.43;;
2390;SDS011;22957;50.824;4.360;2022-07-29T01:07:48;4.80;;;1.37;;
2390;SDS011;22957;50.824;4.360;2022-07-29T01:10:16;3.60;;;1.40;;
2390;SDS011;22957;50.824;4.360;2022-07-29T01:12:45;2.70;;;1.20;;
2390;SDS011;22957;50.824;4.360;2022-07-29T01:15:13;2.53;;;1.50;;
2390;SDS011;22957;50.824;4.360;2022-07-29T01:31:42;3.00;;;1.40;;
2390;SDS011;22957;50.824;4.360;2022-07-29T01:37:27;4.63;;;1.80;;
2390;SDS011;22957;50.824;4.360;2022-07-29T01:40:01;3.63;;;1.10;;
2390;SDS011;22957;50.824;4.360;2022-07-29T01:45:08;4.37;;;1.10;;
2390;SDS011;22957;50.824;4.360;2022-07-29T01:50:33;11.80;;;1.90;;
2390;SDS011;22957;50.824;4.360;2022-07-29T01:53:06;4.93;;;1.50;;
2390;SDS011;22957;50.824;4.360;2022-07-29T01:55:36;3.23;;;1.27;;
2390;SDS011;22957;50.824;4.360;2022-07-29T01:58:07;2.93;;;1.40;;
2390;SDS011;22957;50.824;4.360;2022-07-29T02:00:38;4.70;;;1.67;;
2390;SDS011;22957;50.824;4.360;2022-07-29T02:03:07;6.17;;;1.30;;
2390;SDS011;22957;50.824;4.360;2022-07-29T02:05:37;2.23;;;1.40;;
2390;SDS011;22957;50.824;4.360;2022-07-29T02:08:05;4.90;;;1.20;;
2390;SDS011;22957;50.824;4.360;2022-07-29T02:10:34;6.40;;;1.63;;
2390;SDS011;22957;50.824;4.360;2022-07-29T02:13:01;5.43;;;1.23;;
2390;SDS011;22957;50.824;4.360;2022-07-29T02:15:29;3.70;;;1.13;;
2390;SDS011;22957;50.824;4.360;2022-07-29T02:18:04;2.63;;;1.10;;
2390;SDS011;22957;50.824;4.360;2022-07-29T02:20:41;4.97;;;1.40;;
2390;SDS011;22957;50.824;4.360;2022-07-29T02:23:17;5.40;;;1.53;;
2390;SDS011;22957;50.824;4.360;2022-07-29T02:25:51;6.57;;;1.70;;
2390;SDS011;22957;50.824;4.360;2022-07-29T02:28:20;7.87;;;1.60;;
2390;SDS011;22957;50.824;4.360;2022-07-29T02:30:49;6.13;;;1.33;;
2390;SDS011;22957;50.824;4.360;2022-07-29T02:33:16;4.07;;;1.17;;
2390;SDS011;22957;50.824;4.360;2022-07-29T02:35:44;4.87;;;1.40;;
2390;SDS011;22957;50.824;4.360;2022-07-29T02:38:13;3.57;;;1.23;;
2390;SDS011;22957;50.824;4.360;2022-07-29T02:41:00;5.53;;;1.30;;
2390;SDS011;22957;50.824;4.360;2022-07-29T02:43:29;3.73;;;1.40;;
2390;SDS011;22957;50.824;4.360;2022-07-29T02:45:58;3.80;;;1.03;;
2390;SDS011;22957;50.824;4.360;2022-07-29T02:48:33;3.50;;;1.50;;
2390;SDS011;22957;50.824;4.360;2022-07-29T02:51:12;3.73;;;1.50;;
2390;SDS011;22957;50.824;4.360;2022-07-29T02:53:49;3.63;;;1.10;;
2390;SDS011;22957;50.824;4.360;2022-07-29T02:56:18;4.43;;;1.53;;
2390;SDS011;22957;50.824;4.360;2022-07-29T02:58:53;1.90;;;1.30;;
2390;SDS011;22957;50.824;4.360;2022-07-29T03:01:22;4.10;;;1.70;;
2390;SDS011;22957;50.824;4.360;2022-07-29T03:03:50;3.30;;;1.40;;
2390;SDS011;22957;50.824;4.360;2022-07-29T03:06:19;4.60;;;1.53;;
2390;SDS011;22957;50.824;4.360;2022-07-29T03:08:49;1.90;;;1.40;;
2390;SDS011;22957;50.824;4.360;2022-07-29T03:11:16;3.27;;;1.37;;
2390;SDS011;22957;50.824;4.360;2022-07-29T03:13:43;7.20;;;1.60;;
2390;SDS011;22957;50.824;4.360;2022-07-29T03:16:09;3.60;;;1.43;;
2390;SDS011;22957;50.824;4.360;2022-07-29T03:18:36;3.97;;;1.43;;
2390;SDS011;22957;50.824;4.360;2022-07-29T03:21:03;8.37;;;2.00;;
2390;SDS011;22957;50.824;4.360;2022-07-29T03:23:29;4.17;;;1.50;;
2390;SDS011;22957;50.824;4.360;2022-07-29T03:26:01;2.13;;;1.30;;
2390;SDS011;22957;50.824;4.360;2022-07-29T03:28:27;3.73;;;1.40;;
2390;SDS011;22957;50.824;4.360;2022-07-29T03:30:54;10.73;;;2.27;;
2390;SDS011;22957;50.824;4.360;2022-07-29T03:33:21;6.67;;;1.70;;
2390;SDS011;22957;50.824;4.360;2022-07-29T03:35:47;2.17;;;1.20;;
2390;SDS011;22957;50.824;4.360;2022-07-29T03:38:12;2.63;;;1.30;;
2390;SDS011;22957;50.824;4.360;2022-07-29T03:40:40;2.07;;;1.40;;
2390;SDS011;22957;50.824;4.360;2022-07-29T03:43:19;9.10;;;1.43;;
2390;SDS011;22957;50.824;4.360;2022-07-29T03:45:47;3.90;;;1.93;;
2390;SDS011;22957;50.824;4.360;2022-07-29T03:48:18;2.60;;;1.60;;
2390;SDS011;22957;50.824;4.360;2022-07-29T03:50:47;5.30;;;2.03;;
2390;SDS011;22957;50.824;4.360;2022-07-29T03:53:13;2.37;;;1.40;;
2390;SDS011;22957;50.824;4.360;2022-07-29T03:55:41;4.43;;;1.43;;
2390;SDS011;22957;50.824;4.360;2022-07-29T03:58:12;6.17;;;1.90;;
2390;SDS011;22957;50.824;4.360;2022-07-29T04:00:39;6.40;;;1.37;;
2390;SDS011;22957;50.824;4.360;2022-07-29T04:03:07;4.60;;;1.43;;
2390;SDS011;22957;50.824;4.360;2022-07-29T04:05:36;3.47;;;1.60;;
2390;SDS011;22957;50.824;4.360;2022-07-29T04:08:06;2.70;;;1.60;;
2390;SDS011;22957;50.824;4.360;2022-07-29T04:10:34;4.60;;;1.50;;
2390;SDS011;22957;50.824;4.360;2022-07-29T04:13:00;3.00;;;1.80;;
2390;SDS011;22957;50.824;4.360;2022-07-29T04:15:27;5.80;;;1.73;;
2390;SDS011;22957;50.824;4.360;2022-07-29T04:17:53;8.77;;;1.67;;
2390;SDS011;22957;50.824;4.360;2022-07-29T04:20:20;6.03;;;1.77;;
2390;SDS011;22957;50.824;4.360;2022-07-29T04:22:46;4.40;;;2.03;;
2390;SDS011;22957;50.824;4.360;2022-07-29T04:25:14;4.80;;;1.90;;
2390;SDS011;22957;50.824;4.360;2022-07-29T04:27:39;5.23;;;1.80;;
2390;SDS011;22957;50.824;4.360;2022-07-29T04:30:25;13.17;;;2.33;;
2390;SDS011;22957;50.824;4.360;2022-07-29T04:32:52;3.20;;;1.50;;
2390;SDS011;22957;50.824;4.360;2022-07-29T04:35:18;4.27;;;1.60;;
2390;SDS011;22957;50.824;4.360;2022-07-29T04:37:44;3.53;;;1.60;;
2390;SDS011;22957;50.824;4.360;2022-07-29T04:40:16;7.10;;;1.90;;
2390;SDS011;22957;50.824;4.360;2022-07-29T04:42:44;6.00;;;1.93;;
2390;SDS011;22957;50.824;4.360;2022-07-29T04:45:12;5.33;;;1.90;;
2390;SDS011;22957;50.824;4.360;2022-07-29T04:47:38;5.17;;;2.00;;
2390;SDS011;22957;50.824;4.360;2022-07-29T04:50:04;7.97;;;3.00;;
2390;SDS011;22957;50.824;4.360;2022-07-29T04:52:32;6.80;;;2.00;;
2390;SDS011;22957;50.824;4.360;2022-07-29T04:54:59;5.83;;;2.17;;
2390;SDS011;22957;50.824;4.360;2022-07-29T04:57:27;6.30;;;2.00;;
2390;SDS011;22957;50.824;4.360;2022-07-29T05:02:20;8.37;;;1.70;;
2390;SDS011;22957;50.824;4.360;2022-07-29T05:04:47;3.50;;;2.30;;
2390;SDS011;22957;50.824;4.360;2022-07-29T05:07:14;5.83;;;1.83;;
2390;SDS011;22957;50.824;4.360;2022-07-29T05:09:40;8.50;;;2.00;;
2390;SDS011;22957;50.824;4.360;2022-07-29T05:12:06;5.33;;;2.37;;
2390;SDS011;22957;50.824;4.360;2022-07-29T05:14:33;5.70;;;1.90;;
2390;SDS011;22957;50.824;4.360;2022-07-29T05:16:58;6.20;;;2.83;;
2390;SDS011;22957;50.824;4.360;2022-07-29T05:19:24;4.53;;;1.73;;
2390;SDS011;22957;50.824;4.360;2022-07-29T05:21:51;7.13;;;2.13;;
2390;SDS011;22957;50.824;4.360;2022-07-29T05:24:19;6.30;;;2.30;;
2390;SDS011;22957;50.824;4.360;2022-07-29T05:26:49;2.93;;;1.70;;
2390;SDS011;22957;50.824;4.360;2022-07-29T05:29:16;4.17;;;1.77;;
2390;SDS011;22957;50.824;4.360;2022-07-29T05:31:48;5.67;;;2.87;;
2390;SDS011;22957;50.824;4.360;2022-07-29T05:34:13;6.17;;;2.90;;
2390;SDS011;22957;50.824;4.360;2022-07-29T05:36:40;3.40;;;1.60;;
2390;SDS011;22957;50.824;4.360;2022-07-29T05:44:17;6.27;;;2.87;;
2390;SDS011;22957;50.824;4.360;2022-07-29T05:46:44;4.50;;;2.30;;
2390;SDS011;22957;50.824;4.360;2022-07-29T05:49:13;3.40;;;1.90;;
2390;SDS011;22957;50.824;4.360;2022-07-29T05:51:40;3.60;;;2.60;;
2390;SDS011;22957;50.824;4.360;2022-07-29T05:54:06;7.80;;;3.00;;
2390;SDS011;22957;50.824;4.360;2022-07-29T05:56:35;6.17;;;2.10;;
2390;SDS011;22957;50.824;4.360;2022-07-29T05:59:01;3.23;;;2.20;;
2390;SDS011;22957;50.824;4.360;2022-07-29T06:01:27;4.10;;;2.10;;
2390;SDS011;22957;50.824;4.360;2022-07-29T06:03:53;6.30;;;2.70;;
2390;SDS011;22957;50.824;4.360;2022-07-29T06:06:19;6.27;;;2.50;;
2390;SDS011;22957;50.824;4.360;2022-07-29T06:08:52;7.30;;;2.80;;
2390;SDS011;22957;50.824;4.360;2022-07-29T06:11:20;5.50;;;2.90;;
2390;SDS011;22957;50.824;4.360;2022-07-29T06:13:46;4.27;;;2.60;;
2390;SDS011;22957;50.824;4.360;2022-07-29T06:16:12;8.30;;;2.43;;
2390;SDS011;22957;50.824;4.360;2022-07-29T06:18:38;6.33;;;3.23;;
2390;SDS011;22957;50.824;4.360;2022-07-29T06:21:09;3.63;;;2.27;;
2390;SDS011;22957;50.824;4.360;2022-07-29T06:26:34;7.30;;;2.43;;
2390;SDS011;22957;50.824;4.360;2022-07-29T06:29:03;6.27;;;2.77;;
2390;SDS011;22957;50.824;4.360;2022-07-29T06:39:09;6.97;;;3.50;;
2390;SDS011;22957;50.824;4.360;2022-07-29T07:31:16;6.57;;;2.90;;
2390;SDS011;22957;50.824;4.360;2022-07-29T07:34:02;4.60;;;2.30;;
2390;SDS011;22957;50.824;4.360;2022-07-29T07:36:40;5.90;;;2.30;;
2390;SDS011;22957;50.824;4.360;2022-07-29T07:39:40;4.67;;;1.90;;
2390;SDS011;22957;50.824;4.360;2022-07-29T07:44:41;9.17;;;2.90;;
2390;SDS011;22957;50.824;4.360;2022-07-29T22:37:44;7.70;;;2.70;;
2390;SDS011;22957;50.824;4.360;2022-07-29T22:40:18;7.23;;;3.13;;
2390;SDS011;22957;50.824;4.360;2022-07-29T22:43:08;9.37;;;2.73;;
2390;SDS011;22957;50.824;4.360;2022-07-29T22:45:36;5.60;;;2.60;;
2390;SDS011;22957;50.824;4.360;2022-07-29T22:48:02;4.40;;;2.37;;
2390;SDS011;22957;50.824;4.360;2022-07-29T22:50:30;6.50;;;2.40;;
2390;SDS011;22957;50.824;4.360;2022-07-29T22:52:58;7.70;;;2.70;;
2390;SDS011;22957;50.824;4.360;2022-07-29T22:55:26;7.73;;;2.47;;
2390;SDS011;22957;50.824;4.360;2022-07-29T22:58:02;6.13;;;2.80;;
2390;SDS011;22957;50.824;4.360;2022-07-29T23:00:36;8.00;;;2.83;;
2390;SDS011;22957;50.824;4.360;2022-07-29T23:03:03;7.93;;;2.80;;
2390;SDS011;22957;50.824;4.360;2022-07-29T23:05:36;11.93;;;2.30;;
2390;SDS011;22957;50.824;4.360;2022-07-29T23:08:01;7.13;;;2.90;;
2390;SDS011;22957;50.824;4.360;2022-07-29T23:10:27;13.43;;;3.67;;
2390;SDS011;22957;50.824;4.360;2022-07-29T23:12:55;10.43;;;2.90;;
2390;SDS011;22957;50.824;4.360;2022-07-29T23:15:21;6.20;;;3.47;;
2390;SDS011;22957;50.824;4.360;2022-07-29T23:20:23;9.63;;;3.50;;
2390;SDS011;22957;50.824;4.360;2022-07-29T23:22:48;7.97;;;4.10;;
2390;SDS011;22957;50.824;4.360;2022-07-29T23:25:17;9.43;;;3.33;;
2390;SDS011;22957;50.824;4.360;2022-07-29T23:27:45;9.17;;;3.47;;
2390;SDS011;22957;50.824;4.360;2022-07-29T23:30:15;7.27;;;3.60;;
2390;SDS011;22957;50.824;4.360;2022-07-29T23:32:42;11.40;;;4.10;;
2390;SDS011;22957;50.824;4.360;2022-07-29T23:35:08;9.10;;;4.13;;
2390;SDS011;22957;50.824;4.360;2022-07-29T23:37:36;6.73;;;3.80;;
2390;SDS011;22957;50.824;4.360;2022-07-29T23:42:29;7.50;;;3.10;;
2390;SDS011;22957;50.824;4.360;2022-07-29T23:44:56;8.27;;;2.97;;
2390;SDS011;22957;50.824;4.360;2022-07-29T23:47:23;7.80;;;4.50;;
2390;SDS011;22957;50.824;4.360;2022-07-29T23:49:49;8.73;;;3.20;;
2390;SDS011;22957;50.824;4.360;2022-07-29T23:52:15;6.37;;;3.20;;
2390;SDS011;22957;50.824;4.360;2022-07-29T23:54:42;9.47;;;3.80;;
2390;SDS011;22957;50.824;4.360;2022-07-29T23:57:08;8.93;;;3.33;;
2390;SDS011;22957;50.824;4.360;2022-07-29T23:59:35;7.40;;;4.10;;
